X  Sluiten METAR luchtvaart weer gegevens      EHAM Amsterdam Airport Schiphol
Temperatuur
16°C Temperatuur
15°C Dauwpunt
94% Vochtigheid



Wind
27 KM/U
17 MPH
8 M/S
15 KTS



230°
ZW
Huidig weer

Lichte Buien, Regen Lichte Buien, Regen
Luchtdruk 1008.81 (hPa) - 29.79 (inHg)
Zicht 5.6 (mijl) - 9 (km)
Vliegveld
Vliegveld code EHAM

Locatie : Amsterdam Airport Schiphol
Afstand: 2 (km)

Metar:
EHAM 161125Z 23015KT 190V260 9000 -SHRA FEW015 SCT025CB 16/15 Q1009 RESHRA TEMPO 9999 NSW

Tijd: 16-07-2024 13:25 CEST